createdAt,value
2018-04-24T00:01:24.326Z,16.05
2018-04-24T00:03:52.703Z,16.02
2018-04-24T00:06:21.132Z,16.02
2018-04-24T00:08:49.504Z,16.03
2018-04-24T00:11:17.911Z,16.01
2018-04-24T00:13:46.273Z,15.97
2018-04-24T00:16:14.643Z,15.96
2018-04-24T00:18:42.998Z,15.95
2018-04-24T00:21:11.374Z,15.92
2018-04-24T00:23:39.733Z,15.92
2018-04-24T00:26:08.124Z,15.91
2018-04-24T00:28:36.996Z,15.87
2018-04-24T00:31:05.138Z,15.84
2018-04-24T00:33:33.571Z,15.80
2018-04-24T00:36:01.964Z,15.79
2018-04-24T00:38:30.327Z,15.82
2018-04-24T00:40:58.690Z,15.88
2018-04-24T00:43:27.054Z,15.86
2018-04-24T00:45:55.456Z,15.85
2018-04-24T00:48:23.982Z,15.86
2018-04-24T00:50:52.459Z,15.82
2018-04-24T00:53:32.082Z,15.65
2018-04-24T00:56:00.509Z,15.53
2018-04-24T00:58:28.645Z,15.47
2018-04-24T01:00:57.058Z,15.46
2018-04-24T01:03:25.435Z,15.47
2018-04-24T01:05:53.794Z,15.47
2018-04-24T01:08:22.158Z,15.41
2018-04-24T01:10:50.571Z,15.34
2018-04-24T01:13:18.966Z,15.26
2018-04-24T01:15:47.340Z,15.25
2018-04-24T01:18:15.712Z,15.27
2018-04-24T01:20:44.087Z,15.23
2018-04-24T01:23:12.457Z,15.25
2018-04-24T01:25:40.825Z,15.28
2018-04-24T01:28:09.197Z,15.27
2018-04-24T01:30:37.578Z,15.25
2018-04-24T01:33:05.950Z,15.27
2018-04-24T01:35:34.311Z,15.21
2018-04-24T01:38:02.690Z,15.20
2018-04-24T01:40:31.067Z,15.15
2018-04-24T01:42:59.447Z,15.09
2018-04-24T01:45:27.826Z,15.01
2018-04-24T01:47:56.243Z,15.00
2018-04-24T01:50:24.655Z,14.99
2018-04-24T01:52:53.034Z,14.94
2018-04-24T01:55:21.459Z,14.93
2018-04-24T01:57:49.828Z,14.89
2018-04-24T02:00:18.187Z,14.88
2018-04-24T02:02:46.568Z,14.84
2018-04-24T02:05:14.943Z,14.88
2018-04-24T02:07:43.336Z,14.89
2018-04-24T02:10:11.498Z,14.88
2018-04-24T02:12:39.893Z,14.86
2018-04-24T02:15:08.274Z,14.85
2018-04-24T02:17:36.678Z,14.84
2018-04-24T02:20:05.064Z,14.70
2018-04-24T02:22:33.470Z,14.65
2018-04-24T02:25:01.927Z,14.63
2018-04-24T02:27:30.488Z,14.59
2018-04-24T02:29:58.943Z,14.58
2018-04-24T02:32:27.080Z,14.58
2018-04-24T02:34:55.460Z,14.59
2018-04-24T02:37:23.851Z,14.60
2018-04-24T02:39:52.233Z,14.60
2018-04-24T02:42:20.643Z,14.60
2018-04-24T02:44:49.016Z,14.64
2018-04-24T02:47:17.516Z,14.60
2018-04-24T02:49:45.910Z,14.60
2018-04-24T02:52:14.302Z,14.58
2018-04-24T02:54:42.719Z,14.46
2018-04-24T02:57:11.091Z,14.40
2018-04-24T02:59:39.466Z,14.30
2018-04-24T03:02:07.845Z,14.28
2018-04-24T03:04:36.234Z,14.24
2018-04-24T03:07:04.410Z,14.22
2018-04-24T03:09:32.790Z,14.22
2018-04-24T03:12:01.216Z,14.14
2018-04-24T03:14:29.629Z,14.03
2018-04-24T03:16:58.043Z,13.95
2018-04-24T03:19:27.250Z,13.93
2018-04-24T03:21:55.631Z,13.90
2018-04-24T03:24:24.031Z,13.86
2018-04-24T03:26:52.671Z,13.88
2018-04-24T03:29:21.040Z,13.82
2018-04-24T03:31:49.466Z,13.76
2018-04-24T03:34:17.847Z,13.78
2018-04-24T03:36:46.240Z,13.83
2018-04-24T03:39:14.656Z,13.86
2018-04-24T03:41:43.035Z,13.94
2018-04-24T03:44:11.407Z,13.99
2018-04-24T03:46:39.783Z,13.98
2018-04-24T03:49:08.191Z,13.98
2018-04-24T03:51:36.574Z,13.98
2018-04-24T03:54:04.954Z,14.05
2018-04-24T03:56:33.325Z,14.10
2018-04-24T03:59:01.715Z,14.14
2018-04-24T04:01:30.100Z,14.10
2018-04-24T04:03:58.523Z,14.19
2018-04-24T04:06:26.895Z,14.29
2018-04-24T04:08:55.284Z,14.34
2018-04-24T04:11:23.686Z,14.37
2018-04-24T04:13:52.102Z,14.42
2018-04-24T04:16:20.475Z,14.49
2018-04-24T04:19:00.116Z,14.61
2018-04-24T04:21:39.792Z,14.88
2018-04-24T04:24:21.087Z,15.37
2018-04-24T04:26:49.467Z,16.14
2018-04-24T04:29:17.883Z,16.87
2018-04-24T04:31:46.266Z,17.56
2018-04-24T04:34:14.640Z,17.89
2018-04-24T04:36:43.027Z,18.29
2018-04-24T04:39:11.442Z,18.66
2018-04-24T04:41:39.888Z,18.96
2018-04-24T04:44:08.250Z,19.31
2018-04-24T04:46:36.629Z,19.63
2018-04-24T04:49:04.994Z,19.95
2018-04-24T04:51:33.377Z,20.31
2018-04-24T04:54:01.763Z,20.67
2018-04-24T04:56:30.338Z,21.04
2018-04-24T04:58:58.727Z,21.35
2018-04-24T05:01:27.103Z,21.53
2018-04-24T05:03:55.478Z,21.54
2018-04-24T05:06:23.892Z,21.50
2018-04-24T05:08:52.278Z,21.23
2018-04-24T05:11:20.656Z,20.96
2018-04-24T05:13:49.076Z,20.47
2018-04-24T05:16:17.449Z,19.93
2018-04-24T05:18:45.838Z,19.65
2018-04-24T05:21:14.223Z,19.46
2018-04-24T05:23:42.599Z,19.40
2018-04-24T05:26:10.977Z,19.41
2018-04-24T05:28:39.395Z,19.38
2018-04-24T05:31:07.759Z,19.37
2018-04-24T05:33:36.185Z,19.23
2018-04-24T05:36:04.846Z,19.07
2018-04-24T05:38:33.232Z,18.83
2018-04-24T05:41:01.617Z,18.83
2018-04-24T05:43:29.990Z,18.83
2018-04-24T05:46:00.133Z,18.88
2018-04-24T05:48:28.552Z,18.86
2018-04-24T05:50:57.330Z,18.76
2018-04-24T05:53:25.553Z,18.77
2018-04-24T05:55:53.946Z,18.81
2018-04-24T05:58:22.329Z,18.75
2018-04-24T06:00:50.752Z,18.75
2018-04-24T06:03:19.127Z,18.86
2018-04-24T06:05:47.526Z,18.75
2018-04-24T06:08:15.919Z,18.63
2018-04-24T06:10:44.375Z,18.62
2018-04-24T06:13:12.744Z,18.67
2018-04-24T06:15:41.143Z,18.75
2018-04-24T06:18:09.934Z,18.74
2018-04-24T06:20:38.319Z,18.78
2018-04-24T06:23:06.731Z,18.73
2018-04-24T06:25:35.112Z,18.71
2018-04-24T06:28:03.563Z,18.67
2018-04-24T06:30:31.984Z,18.68
2018-04-24T06:33:00.389Z,18.61
2018-04-24T06:35:28.832Z,18.68
2018-04-24T06:37:57.215Z,18.61
2018-04-24T06:40:25.655Z,18.68
2018-04-24T06:42:54.032Z,18.78
2018-04-24T06:45:22.410Z,18.80
2018-04-24T06:47:50.848Z,18.84
2018-04-24T06:50:19.444Z,18.95
2018-04-24T06:52:47.828Z,18.90
2018-04-24T06:55:16.249Z,18.88
2018-04-24T06:57:44.718Z,18.90
2018-04-24T07:00:13.140Z,18.98
2018-04-24T07:02:41.511Z,19.00
2018-04-24T07:05:09.891Z,19.02
2018-04-24T07:07:38.268Z,19.03
2018-04-24T07:10:06.699Z,19.08
2018-04-24T07:12:35.104Z,19.14
2018-04-24T07:15:03.696Z,19.19
2018-04-24T07:17:32.063Z,19.29
2018-04-24T07:20:00.271Z,19.36
2018-04-24T07:22:28.652Z,19.38
2018-04-24T07:24:57.020Z,19.54
2018-04-24T07:27:25.412Z,19.60
2018-04-24T07:29:53.799Z,19.70
2018-04-24T07:32:22.183Z,19.76
2018-04-24T07:34:50.631Z,19.81
2018-04-24T07:37:19.255Z,19.88
2018-04-24T07:39:47.681Z,20.00
2018-04-24T07:42:16.056Z,20.05
2018-04-24T07:44:44.448Z,20.05
2018-04-24T07:47:14.443Z,20.08
2018-04-24T07:49:42.866Z,20.08
2018-04-24T07:52:12.264Z,20.12
2018-04-24T07:54:40.671Z,20.21
2018-04-24T07:57:09.058Z,20.28
2018-04-24T07:59:37.427Z,20.34
2018-04-24T08:02:05.862Z,20.47
2018-04-24T08:04:34.528Z,20.61
2018-04-24T08:07:02.911Z,20.77
2018-04-24T08:09:31.305Z,20.70
2018-04-24T08:11:59.718Z,20.56
2018-04-24T08:14:28.099Z,20.73
2018-04-24T08:16:56.528Z,20.79
2018-04-24T08:19:24.964Z,20.89
2018-04-24T08:21:53.451Z,20.90
2018-04-24T08:24:21.828Z,20.90
2018-04-24T08:26:50.198Z,20.91
2018-04-24T08:29:18.644Z,21.05
2018-04-24T08:31:47.024Z,21.13
2018-04-24T08:34:15.438Z,21.27
2018-04-24T08:36:43.836Z,21.36
2018-04-24T08:39:12.240Z,21.42
2018-04-24T08:41:40.631Z,21.48
2018-04-24T08:44:09.012Z,21.48
2018-04-24T08:46:37.406Z,21.51
2018-04-24T08:49:05.818Z,21.59
2018-04-24T08:51:34.210Z,21.72
2018-04-24T08:54:02.591Z,21.79
2018-04-24T08:56:31.077Z,21.89
2018-04-24T08:58:59.560Z,22.00
2018-04-24T09:01:27.957Z,22.12
2018-04-24T09:03:56.341Z,22.23
2018-04-24T09:06:24.766Z,22.33
2018-04-24T09:08:53.154Z,22.40
2018-04-24T09:11:21.558Z,22.48
2018-04-24T09:13:49.949Z,22.60
2018-04-24T09:16:18.333Z,22.68
2018-04-24T09:18:46.726Z,22.76
2018-04-24T09:21:15.142Z,22.83
2018-04-24T09:23:43.551Z,22.95
2018-04-24T09:26:11.944Z,23.02
2018-04-24T09:28:40.358Z,23.07
2018-04-24T09:31:08.742Z,23.21
2018-04-24T09:33:37.145Z,23.36
2018-04-24T09:36:05.733Z,23.41
2018-04-24T09:38:34.144Z,23.45
2018-04-24T09:41:03.369Z,23.44
2018-04-24T09:43:31.763Z,23.51
2018-04-24T09:46:00.267Z,23.65
2018-04-24T09:48:28.788Z,23.80
2018-04-24T09:50:57.166Z,23.94
2018-04-24T09:53:25.588Z,23.97
2018-04-24T09:55:53.973Z,24.03
2018-04-24T09:58:22.367Z,24.03
2018-04-24T10:00:50.765Z,24.09
2018-04-24T10:03:19.148Z,24.13
2018-04-24T10:05:47.564Z,24.23
2018-04-24T10:08:15.944Z,24.37
2018-04-24T10:10:44.368Z,24.48
2018-04-24T10:13:12.801Z,24.51
2018-04-24T10:15:41.182Z,24.54
2018-04-24T10:18:09.600Z,24.60
2018-04-24T10:20:37.986Z,24.66
2018-04-24T10:23:06.368Z,24.73
2018-04-24T10:25:34.739Z,24.79
2018-04-24T10:28:03.138Z,24.82
2018-04-24T10:30:32.680Z,24.88
2018-04-24T10:33:01.058Z,24.90
2018-04-24T10:35:29.213Z,24.74
2018-04-24T10:37:57.602Z,24.78
2018-04-24T10:40:25.751Z,24.85
2018-04-24T10:42:54.211Z,25.07
2018-04-24T10:45:22.582Z,25.14
2018-04-24T10:47:50.967Z,25.22
2018-04-24T10:50:19.371Z,25.28
2018-04-24T10:52:47.804Z,25.43
2018-04-24T10:55:16.204Z,25.62
2018-04-24T10:57:44.623Z,25.74
2018-04-24T11:00:13.031Z,25.70
2018-04-24T11:02:41.351Z,25.59
2018-04-24T11:05:09.738Z,25.66
2018-04-24T11:07:38.203Z,25.65
2018-04-24T11:10:06.610Z,25.75
2018-04-24T11:12:35.027Z,25.80
2018-04-24T11:15:03.396Z,25.87
2018-04-24T11:17:31.540Z,25.91
2018-04-24T11:19:59.902Z,25.94
2018-04-24T11:22:28.273Z,25.98
2018-04-24T11:24:56.651Z,26.11
2018-04-24T11:27:25.034Z,26.09
2018-04-24T11:29:53.509Z,26.19
2018-04-24T11:32:21.887Z,26.13
2018-04-24T11:34:50.486Z,26.15
2018-04-24T11:37:18.871Z,26.18
2018-04-24T11:39:47.285Z,26.18
2018-04-24T11:42:15.646Z,26.23
2018-04-24T11:44:44.024Z,26.22
2018-04-24T11:47:12.218Z,26.25
2018-04-24T11:49:40.709Z,26.29
2018-04-24T11:52:09.221Z,26.31
2018-04-24T11:54:37.586Z,26.37
2018-04-24T11:57:05.965Z,26.41
2018-04-24T11:59:34.534Z,26.45
2018-04-24T12:02:02.985Z,26.55
2018-04-24T12:04:31.399Z,26.61
2018-04-24T12:06:59.551Z,26.73
2018-04-24T12:09:27.919Z,26.82
2018-04-24T12:11:56.284Z,26.89
2018-04-24T12:14:24.656Z,26.97
2018-04-24T12:16:53.034Z,26.89
2018-04-24T12:19:21.403Z,26.91
2018-04-24T12:21:49.917Z,26.85
2018-04-24T12:24:18.357Z,26.80
2018-04-24T12:26:46.751Z,26.84
2018-04-24T12:29:15.213Z,26.83
2018-04-24T12:31:43.582Z,26.86
2018-04-24T12:34:11.970Z,26.85
2018-04-24T12:36:40.422Z,26.85
2018-04-24T12:39:08.828Z,26.95
2018-04-24T12:41:37.202Z,26.90
2018-04-24T12:44:05.693Z,26.95
2018-04-24T12:46:34.078Z,26.96
2018-04-24T12:49:02.440Z,26.95
2018-04-24T12:51:30.854Z,27.00
2018-04-24T12:53:59.252Z,26.97
2018-04-24T12:56:27.634Z,27.01
2018-04-24T12:58:56.255Z,26.98
2018-04-24T13:01:24.664Z,26.98
2018-04-24T13:03:53.129Z,27.00
2018-04-24T13:06:21.714Z,26.91
2018-04-24T13:08:50.098Z,26.91
2018-04-24T13:11:18.484Z,26.80
2018-04-24T13:13:46.851Z,26.79
2018-04-24T13:16:15.219Z,26.97
2018-04-24T13:18:43.612Z,27.07
2018-04-24T13:21:12.346Z,27.12
2018-04-24T13:23:41.492Z,27.17
2018-04-24T13:26:10.055Z,27.13
2018-04-24T13:28:38.455Z,27.16
2018-04-24T13:31:07.842Z,27.22
2018-04-24T13:33:36.226Z,27.35
2018-04-24T13:36:04.635Z,27.42
2018-04-24T13:38:33.182Z,27.44
2018-04-24T13:41:01.671Z,27.49
2018-04-24T13:43:30.074Z,27.46
2018-04-24T13:45:58.491Z,27.39
2018-04-24T13:48:26.859Z,27.27
2018-04-24T13:50:55.222Z,27.30
2018-04-24T13:53:23.597Z,27.38
2018-04-24T13:55:51.964Z,27.40
2018-04-24T13:58:20.857Z,27.24
2018-04-24T14:00:50.613Z,27.20
2018-04-24T14:03:21.489Z,27.22
2018-04-24T14:05:52.936Z,27.26
2018-04-24T14:08:21.400Z,27.22
2018-04-24T14:10:50.632Z,27.21
2018-04-24T14:13:19.114Z,27.12
2018-04-24T14:15:48.618Z,27.04
2018-04-24T14:18:17.046Z,27.02
2018-04-24T14:20:45.454Z,26.97
2018-04-24T14:23:13.887Z,26.95
2018-04-24T14:25:42.301Z,27.06
2018-04-24T14:28:10.675Z,27.12
2018-04-24T14:30:39.089Z,27.16
2018-04-24T14:33:07.463Z,26.95
2018-04-24T14:35:35.956Z,26.86
2018-04-24T14:38:04.318Z,26.68
2018-04-24T14:40:32.695Z,26.56
2018-04-24T14:43:01.075Z,26.58
2018-04-24T14:45:29.447Z,26.68
2018-04-24T14:47:58.520Z,26.70
2018-04-24T14:50:26.955Z,26.69
2018-04-24T14:52:56.874Z,26.64
2018-04-24T14:58:03.167Z,26.63
2018-04-24T15:03:07.083Z,26.63
2018-04-24T15:05:37.051Z,26.61
2018-04-24T15:08:05.521Z,26.71
2018-04-24T15:10:33.920Z,26.75
2018-04-24T15:13:02.333Z,26.84
2018-04-24T15:15:30.770Z,26.84
2018-04-24T15:17:59.137Z,26.88
2018-04-24T15:20:27.657Z,26.90
2018-04-24T15:22:56.147Z,26.88
2018-04-24T15:25:25.140Z,26.97
2018-04-24T15:27:53.606Z,27.04
2018-04-24T15:30:23.535Z,27.22
2018-04-24T15:32:51.894Z,27.26
2018-04-24T15:35:20.346Z,27.24
2018-04-24T15:37:48.788Z,27.19
2018-04-24T15:40:17.213Z,27.01
2018-04-24T15:42:45.584Z,26.87
2018-04-24T15:45:14.026Z,26.78
2018-04-24T15:47:42.406Z,26.75
2018-04-24T15:50:10.839Z,26.77
2018-04-24T15:52:39.946Z,26.79
2018-04-24T15:55:08.315Z,26.84
2018-04-24T15:57:36.739Z,26.89
2018-04-24T16:00:06.664Z,26.79
2018-04-24T16:02:35.040Z,26.51
2018-04-24T16:05:03.559Z,26.46
2018-04-24T16:07:31.940Z,26.38
2018-04-24T16:10:02.155Z,26.24
2018-04-24T16:12:30.671Z,26.14
2018-04-24T16:14:59.039Z,26.00
2018-04-24T16:17:27.472Z,25.90
2018-04-24T16:19:55.848Z,25.92
2018-04-24T16:22:24.266Z,25.85
2018-04-24T16:24:52.692Z,25.82
2018-04-24T16:27:21.210Z,25.78
2018-04-24T16:29:49.754Z,25.63
2018-04-24T16:32:18.276Z,25.49
2018-04-24T16:34:46.687Z,25.38
2018-04-24T16:37:15.073Z,25.27
2018-04-24T16:39:43.498Z,25.21
2018-04-24T16:42:11.896Z,25.10
2018-04-24T16:44:40.328Z,25.02
2018-04-24T16:47:08.706Z,24.91
2018-04-24T16:49:37.113Z,24.83
2018-04-24T16:52:05.548Z,24.78
2018-04-24T16:54:33.919Z,24.68
2018-04-24T16:57:02.356Z,24.63
2018-04-24T16:59:30.741Z,24.60
2018-04-24T17:01:59.217Z,24.60
2018-04-24T17:04:27.757Z,24.58
2018-04-24T17:06:56.131Z,24.61
2018-04-24T17:09:24.519Z,24.53
2018-04-24T17:11:52.900Z,24.46
2018-04-24T17:14:21.258Z,24.44
2018-04-24T17:16:49.638Z,24.42
2018-04-24T17:19:18.026Z,24.34
2018-04-24T17:21:46.406Z,24.31
2018-04-24T17:24:14.783Z,24.14
2018-04-24T17:26:43.163Z,23.66
2018-04-24T17:29:11.557Z,23.29
2018-04-24T17:31:39.940Z,23.15
2018-04-24T17:34:08.348Z,23.17
2018-04-24T17:36:36.800Z,23.08
2018-04-24T17:39:04.697Z,22.97
2018-04-24T17:41:33.082Z,22.90
2018-04-24T17:44:01.450Z,22.79
2018-04-24T17:46:29.821Z,22.67
2018-04-24T17:48:58.222Z,22.68
2018-04-24T17:51:26.601Z,22.61
2018-04-24T17:53:55.015Z,22.50
2018-04-24T17:56:23.525Z,22.40
2018-04-24T17:58:51.923Z,22.35
2018-04-24T18:01:20.180Z,22.24
2018-04-24T18:03:48.551Z,22.13
2018-04-24T18:06:17.165Z,22.01
2018-04-24T18:08:45.542Z,22.00
2018-04-24T18:11:14.524Z,22.00
2018-04-24T18:13:42.988Z,22.02
2018-04-24T18:16:11.383Z,21.93
2018-04-24T18:18:39.757Z,21.92
2018-04-24T18:21:08.199Z,21.85
2018-04-24T18:23:36.603Z,21.73
2018-04-24T18:26:05.094Z,21.62
2018-04-24T18:28:33.288Z,21.64
2018-04-24T18:31:01.427Z,21.58
2018-04-24T18:33:30.143Z,21.54
2018-04-24T18:35:58.519Z,21.53
2018-04-24T18:38:26.919Z,21.53
2018-04-24T18:40:55.307Z,21.53
2018-04-24T18:43:23.685Z,21.56
2018-04-24T18:45:52.065Z,21.53
2018-04-24T18:48:20.621Z,21.49
2018-04-24T18:50:48.993Z,21.54
2018-04-24T18:53:17.411Z,21.49
2018-04-24T18:55:45.805Z,21.46
2018-04-24T18:58:14.238Z,21.34
2018-04-24T19:00:42.615Z,21.31
2018-04-24T19:03:10.987Z,21.24
2018-04-24T19:05:39.364Z,21.20
2018-04-24T19:08:07.929Z,21.22
2018-04-24T19:10:36.352Z,21.18
2018-04-24T19:13:04.719Z,21.20
2018-04-24T19:15:33.194Z,21.20
2018-04-24T19:18:01.339Z,21.19
2018-04-24T19:20:29.739Z,21.23
2018-04-24T19:22:57.926Z,21.09
2018-04-24T19:25:46.104Z,21.03
2018-04-24T19:28:14.552Z,20.97
2018-04-24T19:30:42.785Z,20.86
2018-04-24T19:33:11.171Z,20.75
2018-04-24T19:35:39.556Z,20.71
2018-04-24T19:38:07.950Z,20.68
2018-04-24T19:40:41.652Z,20.64
2018-04-24T19:43:10.040Z,20.61
2018-04-24T19:45:38.461Z,20.53
2018-04-24T19:48:06.831Z,20.47
2018-04-24T19:50:35.255Z,20.40
2018-04-24T19:53:03.836Z,20.35
2018-04-24T19:55:32.261Z,20.25
2018-04-24T19:58:00.693Z,20.23
2018-04-24T20:00:29.182Z,20.25
2018-04-24T20:02:57.659Z,20.25
2018-04-24T20:05:25.936Z,20.31
2018-04-24T20:07:54.354Z,20.36
2018-04-24T20:10:22.797Z,20.43
2018-04-24T20:12:54.335Z,20.38
2018-04-24T20:15:22.751Z,20.34
2018-04-24T20:17:51.239Z,20.27
2018-04-24T20:20:19.639Z,20.25
2018-04-24T20:22:56.877Z,20.24
2018-04-24T20:25:25.751Z,20.19
2018-04-24T20:30:41.615Z,20.15
2018-04-24T20:33:09.975Z,20.25
2018-04-24T20:35:38.347Z,20.33
2018-04-24T20:38:06.792Z,20.28
2018-04-24T20:40:35.158Z,20.24
2018-04-24T20:43:04.336Z,20.25
2018-04-24T20:45:32.704Z,20.29
2018-04-24T20:48:01.070Z,20.29
2018-04-24T20:50:29.439Z,20.25
2018-04-24T20:52:57.864Z,20.11
2018-04-24T20:55:26.047Z,19.83
2018-04-24T20:57:54.460Z,19.73
2018-04-24T21:00:22.884Z,19.71
2018-04-24T21:02:51.264Z,19.63
2018-04-24T21:05:19.704Z,19.64
2018-04-24T21:07:48.140Z,19.65
2018-04-24T21:10:16.645Z,19.56
2018-04-24T21:12:45.010Z,19.47
2018-04-24T21:15:13.366Z,19.45
2018-04-24T21:17:41.799Z,19.28
2018-04-24T21:20:10.178Z,19.21
2018-04-24T21:22:38.546Z,19.20
2018-04-24T21:25:06.924Z,19.18
2018-04-24T21:27:35.326Z,19.16
2018-04-24T21:30:05.167Z,19.13
2018-04-24T21:32:33.323Z,19.01
2018-04-24T21:35:01.739Z,18.88
2018-04-24T21:37:30.115Z,18.84
2018-04-24T21:39:58.471Z,18.86
2018-04-24T21:42:26.845Z,18.84
2018-04-24T21:44:55.236Z,18.80
2018-04-24T21:47:23.614Z,18.74
2018-04-24T21:49:51.985Z,18.64
2018-04-24T21:52:20.355Z,18.62
2018-04-24T21:54:48.739Z,18.66
2018-04-24T21:57:17.156Z,18.70
2018-04-24T21:59:45.525Z,18.72
2018-04-24T22:02:13.888Z,18.77
2018-04-24T22:04:42.261Z,18.64
2018-04-24T22:07:10.630Z,18.59
2018-04-24T22:09:39.013Z,18.57
2018-04-24T22:12:07.387Z,18.53
2018-04-24T22:14:35.795Z,18.58
2018-04-24T22:17:04.160Z,18.59
2018-04-24T22:19:32.530Z,18.63
2018-04-24T22:22:00.891Z,18.60
2018-04-24T22:24:29.305Z,18.66
2018-04-24T22:26:57.675Z,18.66
2018-04-24T22:29:26.411Z,18.72
2018-04-24T22:31:54.775Z,18.74
2018-04-24T22:34:23.140Z,18.78
2018-04-24T22:36:51.581Z,18.81
2018-04-24T22:39:19.975Z,18.77
2018-04-24T22:41:48.413Z,18.72
2018-04-24T22:44:16.815Z,18.59
2018-04-24T22:46:45.236Z,18.53
2018-04-24T22:49:13.651Z,18.50
2018-04-24T22:51:42.020Z,18.52
2018-04-24T22:54:10.400Z,18.52
2018-04-24T22:56:38.771Z,18.55
2018-04-24T22:59:06.987Z,18.57
2018-04-24T23:01:35.414Z,18.57
2018-04-24T23:04:03.824Z,18.41
2018-04-24T23:06:32.224Z,18.23
2018-04-24T23:09:00.621Z,18.15
2018-04-24T23:11:40.307Z,17.95
2018-04-24T23:14:19.892Z,17.76
2018-04-24T23:16:59.542Z,17.48
2018-04-24T23:19:39.113Z,17.15
2018-04-24T23:22:06.461Z,17.00
2018-04-24T23:24:34.832Z,16.96
2018-04-24T23:27:03.262Z,16.96
2018-04-24T23:29:31.643Z,16.98
2018-04-24T23:32:00.057Z,17.00
2018-04-24T23:34:28.427Z,17.00
2018-04-24T23:36:56.794Z,17.02
2018-04-24T23:39:25.204Z,16.97
2018-04-24T23:41:53.583Z,16.93
2018-04-24T23:44:22.014Z,16.86
2018-04-24T23:46:50.383Z,16.83
2018-04-24T23:49:18.771Z,16.83
2018-04-24T23:51:47.178Z,16.82
2018-04-24T23:54:15.554Z,16.84
2018-04-24T23:56:44.012Z,16.85
2018-04-24T23:59:12.387Z,16.89
